Airfield :
LOGIN :

Register | Disclaimer

   EN    FR    IT 

 










Legend :    VFR   Marginal VFR   IFR   Intensive IFR   Very Intensive IFR
Visi :
Ceiling :
>= 8 km
>= 3000ft
5 to 8 km
1000 to 3000 ft
1500m to 5 km
500 to 1000 ft
800 to 1500m
200 to 500 ft
< 800m
< 200 ft
Symbols :   Thunderstorms  Fog  Heavy snow  Heavy precipitations  Wind > 20 kt
SIGMETs :     Misc.  Thunderstorms  Icing  Turbulence  Mountain Waves  Volcanic Ashes






- Airport Elevation : 119 ft
- IATA code : WAT


EIWF - Waterford

CURRENT METAR :
  • 231600Z 34011KT 240V040 9999 SCT043 15/05 Q1018

EXPIRED METARs :
  • 231530Z 34010KT 250V060 9999 SCT041 14/05 Q1018
  • 231500Z 35012G24KT 290V040 9999 SCT039 15/06 Q1018
  • 231430Z 32012G23KT 270V030 9999 SCT040 15/07 Q1018
  • 231400Z 33012G23KT 280V030 9999 FEW042 14/05 Q1018
  • 231330Z 34013G23KT 300V040 9999 FEW035 15/06 Q1018
  • 231300Z 35014KT 290V040 9999 FEW035 15/05 Q1018
  • 231200Z 34014G27KT 290V050 9999 SCT037 14/06 Q1018

TAF TAF EIWF
Valid from the 23 at 15:00 until the 24 at 00:00 UTC


231400Z 2315/2324 33014KT 9999 BKN030
TEMPO 2315/2317 34015G26KT
ATIS : +353 51 877 000



MET'MAP, your aeronautical weather chart ! - Copyright ORBIFLY December 2007 - Disclaimer

ORBIFLY MET'MAP TEAM :

Programming & Development : Alexandra Zaïnal
Original concept : Baudouin d'Aumeries
Technical & hardware support : Manuel Goepfert
Assistance : Marc-Olivier Méhu




SOURCES & CREDITS :

   NOAA